sensor_id;sensor_type;location;lat;lon;timestamp;pressure;altitude;pressure_sealevel;temperature;humidity
6198;BME280;3132;42.622;23.328;2023-12-29T00:01:54;93400.03;;;4.75;87.47
6198;BME280;3132;42.622;23.328;2023-12-29T00:04:19;93403.22;;;4.88;86.68
6198;BME280;3132;42.622;23.328;2023-12-29T00:06:45;93399.50;;;4.96;86.47
6198;BME280;3132;42.622;23.328;2023-12-29T00:09:11;93391.59;;;4.79;86.85
6198;BME280;3132;42.622;23.328;2023-12-29T00:11:38;93405.47;;;4.85;86.22
6198;BME280;3132;42.622;23.328;2023-12-29T00:14:03;93402.97;;;4.78;86.71
6198;BME280;3132;42.622;23.328;2023-12-29T00:16:28;93392.06;;;4.76;86.72
6198;BME280;3132;42.622;23.328;2023-12-29T00:18:54;93395.41;;;4.65;87.56
6198;BME280;3132;42.622;23.328;2023-12-29T00:21:19;93386.97;;;4.58;87.63
6198;BME280;3132;42.622;23.328;2023-12-29T00:23:44;93405.69;;;4.83;86.83
6198;BME280;3132;42.622;23.328;2023-12-29T00:26:10;93398.34;;;4.57;87.46
6198;BME280;3132;42.622;23.328;2023-12-29T00:28:35;93409.44;;;4.46;87.53
6198;BME280;3132;42.622;23.328;2023-12-29T00:31:05;93402.38;;;4.42;88.17
6198;BME280;3132;42.622;23.328;2023-12-29T00:33:31;93408.75;;;4.39;88.63
6198;BME280;3132;42.622;23.328;2023-12-29T00:35:57;93405.28;;;4.45;88.37
6198;BME280;3132;42.622;23.328;2023-12-29T00:38:22;93386.91;;;4.24;88.61
6198;BME280;3132;42.622;23.328;2023-12-29T00:40:48;93391.75;;;4.32;87.83
6198;BME280;3132;42.622;23.328;2023-12-29T00:43:13;93387.38;;;4.32;87.97
6198;BME280;3132;42.622;23.328;2023-12-29T00:45:39;93374.06;;;4.06;89.43
6198;BME280;3132;42.622;23.328;2023-12-29T00:48:05;93380.69;;;4.13;89.54
6198;BME280;3132;42.622;23.328;2023-12-29T00:50:30;93376.50;;;4.01;89.47
6198;BME280;3132;42.622;23.328;2023-12-29T00:52:55;93367.63;;;3.97;89.79
6198;BME280;3132;42.622;23.328;2023-12-29T00:55:21;93375.97;;;4.10;89.25
6198;BME280;3132;42.622;23.328;2023-12-29T00:57:46;93373.97;;;4.12;88.23
6198;BME280;3132;42.622;23.328;2023-12-29T01:00:12;93370.66;;;3.94;89.27
6198;BME280;3132;42.622;23.328;2023-12-29T01:02:38;93379.44;;;4.04;89.30
6198;BME280;3132;42.622;23.328;2023-12-29T01:05:04;93375.09;;;4.16;89.09
6198;BME280;3132;42.622;23.328;2023-12-29T01:07:29;93376.41;;;4.07;88.93
6198;BME280;3132;42.622;23.328;2023-12-29T01:09:55;93379.78;;;4.08;89.09
6198;BME280;3132;42.622;23.328;2023-12-29T01:12:20;93362.94;;;4.05;89.14
6198;BME280;3132;42.622;23.328;2023-12-29T01:14:45;93358.03;;;4.15;88.91
6198;BME280;3132;42.622;23.328;2023-12-29T01:17:11;93375.81;;;4.23;88.56
6198;BME280;3132;42.622;23.328;2023-12-29T01:19:36;93358.34;;;4.19;88.85
6198;BME280;3132;42.622;23.328;2023-12-29T01:22:01;93362.44;;;4.26;87.98
6198;BME280;3132;42.622;23.328;2023-12-29T01:24:27;93371.88;;;4.32;87.51
6198;BME280;3132;42.622;23.328;2023-12-29T01:26:52;93368.38;;;4.27;87.18
6198;BME280;3132;42.622;23.328;2023-12-29T01:29:18;93363.88;;;4.22;87.21
6198;BME280;3132;42.622;23.328;2023-12-29T01:31:43;93373.91;;;4.30;86.63
6198;BME280;3132;42.622;23.328;2023-12-29T01:34:08;93379.97;;;4.36;86.68
6198;BME280;3132;42.622;23.328;2023-12-29T01:36:33;93382.69;;;4.41;86.11
6198;BME280;3132;42.622;23.328;2023-12-29T01:38:59;93363.19;;;4.15;86.84
6198;BME280;3132;42.622;23.328;2023-12-29T01:41:24;93377.53;;;4.11;87.32
6198;BME280;3132;42.622;23.328;2023-12-29T01:46:21;93381.81;;;4.17;87.86
6198;BME280;3132;42.622;23.328;2023-12-29T01:48:46;93379.13;;;4.12;87.82
6198;BME280;3132;42.622;23.328;2023-12-29T01:51:12;93379.19;;;3.94;88.93
6198;BME280;3132;42.622;23.328;2023-12-29T01:53:37;93372.03;;;4.08;87.86
6198;BME280;3132;42.622;23.328;2023-12-29T01:56:03;93368.66;;;4.07;87.18
6198;BME280;3132;42.622;23.328;2023-12-29T01:58:29;93362.56;;;4.02;86.73
6198;BME280;3132;42.622;23.328;2023-12-29T02:00:55;93358.81;;;3.86;87.30
6198;BME280;3132;42.622;23.328;2023-12-29T02:03:20;93353.41;;;3.76;87.98
6198;BME280;3132;42.622;23.328;2023-12-29T02:05:46;93318.00;;;3.65;88.57
6198;BME280;3132;42.622;23.328;2023-12-29T02:08:13;93358.94;;;3.91;88.97
6198;BME280;3132;42.622;23.328;2023-12-29T02:10:38;93378.19;;;3.66;89.73
6198;BME280;3132;42.622;23.328;2023-12-29T02:13:04;93363.19;;;3.56;89.90
6198;BME280;3132;42.622;23.328;2023-12-29T02:15:29;93346.56;;;3.52;89.88
6198;BME280;3132;42.622;23.328;2023-12-29T02:18:00;93348.63;;;3.62;89.72
6198;BME280;3132;42.622;23.328;2023-12-29T02:20:27;93328.31;;;3.65;89.52
6198;BME280;3132;42.622;23.328;2023-12-29T02:22:52;93334.59;;;3.87;88.68
6198;BME280;3132;42.622;23.328;2023-12-29T02:25:18;93334.88;;;3.79;88.70
6198;BME280;3132;42.622;23.328;2023-12-29T02:28:09;93333.69;;;3.93;87.83
6198;BME280;3132;42.622;23.328;2023-12-29T02:33:14;93323.84;;;3.72;87.95
6198;BME280;3132;42.622;23.328;2023-12-29T02:35:43;93327.81;;;3.86;87.30
6198;BME280;3132;42.622;23.328;2023-12-29T02:38:09;93326.19;;;4.03;86.51
6198;BME280;3132;42.622;23.328;2023-12-29T02:40:36;93326.69;;;3.82;87.20
6198;BME280;3132;42.622;23.328;2023-12-29T02:43:01;93318.03;;;3.77;87.08
6198;BME280;3132;42.622;23.328;2023-12-29T02:45:27;93320.06;;;3.75;87.30
6198;BME280;3132;42.622;23.328;2023-12-29T02:47:52;93304.56;;;3.75;87.71
6198;BME280;3132;42.622;23.328;2023-12-29T02:50:18;93282.44;;;3.79;87.67
6198;BME280;3132;42.622;23.328;2023-12-29T02:52:43;93298.50;;;3.81;87.89
6198;BME280;3132;42.622;23.328;2023-12-29T02:55:09;93298.00;;;4.02;86.62
6198;BME280;3132;42.622;23.328;2023-12-29T02:57:34;93292.03;;;3.90;87.09
6198;BME280;3132;42.622;23.328;2023-12-29T02:59:59;93295.72;;;3.82;87.44
6198;BME280;3132;42.622;23.328;2023-12-29T03:02:25;93291.00;;;3.79;87.94
6198;BME280;3132;42.622;23.328;2023-12-29T03:04:51;93284.44;;;3.77;87.21
6198;BME280;3132;42.622;23.328;2023-12-29T03:07:16;93290.53;;;3.82;86.53
6198;BME280;3132;42.622;23.328;2023-12-29T03:09:42;93267.63;;;3.74;86.17
6198;BME280;3132;42.622;23.328;2023-12-29T03:12:07;93269.88;;;3.82;85.87
6198;BME280;3132;42.622;23.328;2023-12-29T03:14:32;93274.84;;;3.84;86.22
6198;BME280;3132;42.622;23.328;2023-12-29T03:16:58;93276.38;;;3.73;86.69
6198;BME280;3132;42.622;23.328;2023-12-29T03:19:24;93258.63;;;3.65;87.36
6198;BME280;3132;42.622;23.328;2023-12-29T03:21:49;93281.47;;;3.80;86.42
6198;BME280;3132;42.622;23.328;2023-12-29T03:24:15;93282.97;;;3.69;86.85
6198;BME280;3132;42.622;23.328;2023-12-29T03:26:40;93268.81;;;3.60;88.12
6198;BME280;3132;42.622;23.328;2023-12-29T03:29:06;93271.84;;;3.57;87.38
6198;BME280;3132;42.622;23.328;2023-12-29T03:31:31;93256.22;;;3.52;87.23
6198;BME280;3132;42.622;23.328;2023-12-29T03:33:57;93276.63;;;3.54;87.41
6198;BME280;3132;42.622;23.328;2023-12-29T03:36:22;93276.59;;;3.72;87.03
6198;BME280;3132;42.622;23.328;2023-12-29T03:38:47;93261.44;;;3.64;87.04
6198;BME280;3132;42.622;23.328;2023-12-29T03:41:13;93270.72;;;3.53;88.51
6198;BME280;3132;42.622;23.328;2023-12-29T03:43:38;93266.00;;;3.50;88.27
6198;BME280;3132;42.622;23.328;2023-12-29T03:46:18;93258.50;;;3.30;87.67
6198;BME280;3132;42.622;23.328;2023-12-29T03:48:43;93272.44;;;3.41;88.42
6198;BME280;3132;42.622;23.328;2023-12-29T03:51:09;93268.78;;;3.49;88.66
6198;BME280;3132;42.622;23.328;2023-12-29T03:53:34;93260.84;;;3.32;89.40
6198;BME280;3132;42.622;23.328;2023-12-29T03:56:04;93277.16;;;3.44;89.13
6198;BME280;3132;42.622;23.328;2023-12-29T03:58:30;93276.31;;;3.50;88.61
6198;BME280;3132;42.622;23.328;2023-12-29T04:00:55;93288.66;;;3.48;88.77
6198;BME280;3132;42.622;23.328;2023-12-29T04:03:21;93284.50;;;3.29;88.76
6198;BME280;3132;42.622;23.328;2023-12-29T04:05:46;93284.06;;;3.32;88.90
6198;BME280;3132;42.622;23.328;2023-12-29T04:08:11;93283.19;;;3.38;89.25
6198;BME280;3132;42.622;23.328;2023-12-29T04:10:38;93280.84;;;3.37;89.34
6198;BME280;3132;42.622;23.328;2023-12-29T04:13:03;93252.88;;;3.22;89.34
6198;BME280;3132;42.622;23.328;2023-12-29T04:15:29;93278.53;;;3.47;90.33
6198;BME280;3132;42.622;23.328;2023-12-29T04:17:54;93281.72;;;3.30;89.75
6198;BME280;3132;42.622;23.328;2023-12-29T04:20:19;93277.88;;;3.21;90.29
6198;BME280;3132;42.622;23.328;2023-12-29T04:22:46;93290.56;;;3.23;89.86
6198;BME280;3132;42.622;23.328;2023-12-29T04:25:11;93291.13;;;3.25;89.65
6198;BME280;3132;42.622;23.328;2023-12-29T04:27:37;93289.69;;;3.29;90.13
6198;BME280;3132;42.622;23.328;2023-12-29T04:30:02;93279.88;;;3.19;90.13
6198;BME280;3132;42.622;23.328;2023-12-29T04:32:28;93281.19;;;3.10;90.57
6198;BME280;3132;42.622;23.328;2023-12-29T04:34:53;93291.06;;;3.13;90.67
6198;BME280;3132;42.622;23.328;2023-12-29T04:37:18;93287.19;;;3.04;91.00
6198;BME280;3132;42.622;23.328;2023-12-29T04:39:44;93262.22;;;2.87;91.46
6198;BME280;3132;42.622;23.328;2023-12-29T04:42:09;93292.66;;;2.96;91.61
6198;BME280;3132;42.622;23.328;2023-12-29T04:44:34;93281.41;;;2.91;91.90
6198;BME280;3132;42.622;23.328;2023-12-29T04:47:00;93268.31;;;2.92;91.19
6198;BME280;3132;42.622;23.328;2023-12-29T04:49:25;93274.59;;;2.96;91.60
6198;BME280;3132;42.622;23.328;2023-12-29T04:51:50;93286.13;;;2.94;91.88
6198;BME280;3132;42.622;23.328;2023-12-29T04:54:16;93280.63;;;2.90;92.10
6198;BME280;3132;42.622;23.328;2023-12-29T04:56:41;93283.84;;;2.86;92.11
6198;BME280;3132;42.622;23.328;2023-12-29T04:59:07;93284.13;;;2.96;91.58
6198;BME280;3132;42.622;23.328;2023-12-29T05:01:32;93285.00;;;3.08;90.57
6198;BME280;3132;42.622;23.328;2023-12-29T05:03:57;93282.13;;;2.98;91.11
6198;BME280;3132;42.622;23.328;2023-12-29T05:06:23;93282.41;;;3.08;91.66
6198;BME280;3132;42.622;23.328;2023-12-29T05:08:48;93278.88;;;3.02;91.23
6198;BME280;3132;42.622;23.328;2023-12-29T05:11:13;93268.75;;;2.89;91.67
6198;BME280;3132;42.622;23.328;2023-12-29T05:13:39;93257.69;;;2.82;91.79
6198;BME280;3132;42.622;23.328;2023-12-29T05:16:05;93266.63;;;2.98;90.86
6198;BME280;3132;42.622;23.328;2023-12-29T05:18:30;93254.19;;;2.95;90.98
6198;BME280;3132;42.622;23.328;2023-12-29T05:20:56;93260.63;;;3.04;90.99
6198;BME280;3132;42.622;23.328;2023-12-29T05:23:21;93257.13;;;2.98;91.56
6198;BME280;3132;42.622;23.328;2023-12-29T05:25:47;93258.09;;;3.15;90.93
6198;BME280;3132;42.622;23.328;2023-12-29T05:28:12;93255.88;;;3.01;91.69
6198;BME280;3132;42.622;23.328;2023-12-29T05:30:37;93265.91;;;3.09;91.81
6198;BME280;3132;42.622;23.328;2023-12-29T05:33:03;93244.66;;;2.95;91.93
6198;BME280;3132;42.622;23.328;2023-12-29T05:35:28;93262.63;;;3.02;91.26
6198;BME280;3132;42.622;23.328;2023-12-29T05:37:53;93259.34;;;2.95;91.00
6198;BME280;3132;42.622;23.328;2023-12-29T05:40:19;93257.81;;;3.05;91.13
6198;BME280;3132;42.622;23.328;2023-12-29T05:42:44;93273.84;;;3.25;90.37
6198;BME280;3132;42.622;23.328;2023-12-29T05:45:09;93279.00;;;3.25;89.25
6198;BME280;3132;42.622;23.328;2023-12-29T05:47:35;93284.47;;;3.17;89.97
6198;BME280;3132;42.622;23.328;2023-12-29T05:50:00;93268.06;;;3.12;90.12
6198;BME280;3132;42.622;23.328;2023-12-29T05:52:25;93283.31;;;3.13;90.84
6198;BME280;3132;42.622;23.328;2023-12-29T05:54:51;93277.94;;;3.15;90.69
6198;BME280;3132;42.622;23.328;2023-12-29T05:57:16;93270.50;;;3.07;90.64
6198;BME280;3132;42.622;23.328;2023-12-29T05:59:41;93276.81;;;3.11;90.87
6198;BME280;3132;42.622;23.328;2023-12-29T06:02:07;93272.41;;;3.11;91.08
6198;BME280;3132;42.622;23.328;2023-12-29T06:04:32;93214.97;;;2.75;91.60
6198;BME280;3132;42.622;23.328;2023-12-29T06:06:57;93245.00;;;2.99;91.85
6198;BME280;3132;42.622;23.328;2023-12-29T06:09:23;93255.97;;;2.94;92.88
6198;BME280;3132;42.622;23.328;2023-12-29T06:11:49;93251.09;;;3.04;92.05
6198;BME280;3132;42.622;23.328;2023-12-29T06:14:15;93246.72;;;3.05;92.24
6198;BME280;3132;42.622;23.328;2023-12-29T06:16:40;93243.84;;;3.13;91.90
6198;BME280;3132;42.622;23.328;2023-12-29T06:19:05;93250.72;;;3.19;91.42
6198;BME280;3132;42.622;23.328;2023-12-29T06:21:31;93251.78;;;3.41;90.54
6198;BME280;3132;42.622;23.328;2023-12-29T06:23:56;93249.66;;;3.38;90.38
6198;BME280;3132;42.622;23.328;2023-12-29T06:26:22;93257.22;;;3.51;90.27
6198;BME280;3132;42.622;23.328;2023-12-29T06:28:48;93260.06;;;3.61;89.48
6198;BME280;3132;42.622;23.328;2023-12-29T06:31:14;93265.88;;;3.57;89.15
6198;BME280;3132;42.622;23.328;2023-12-29T06:33:42;93256.06;;;3.47;89.58
6198;BME280;3132;42.622;23.328;2023-12-29T06:36:09;93264.44;;;3.31;89.51
6198;BME280;3132;42.622;23.328;2023-12-29T06:38:35;93275.16;;;3.46;89.46
6198;BME280;3132;42.622;23.328;2023-12-29T06:41:02;93275.91;;;3.35;89.80
6198;BME280;3132;42.622;23.328;2023-12-29T06:43:28;93275.47;;;3.38;90.30
6198;BME280;3132;42.622;23.328;2023-12-29T06:45:53;93267.13;;;3.54;89.19
6198;BME280;3132;42.622;23.328;2023-12-29T06:48:19;93255.22;;;3.53;89.62
6198;BME280;3132;42.622;23.328;2023-12-29T06:50:44;93248.56;;;3.46;89.81
6198;BME280;3132;42.622;23.328;2023-12-29T06:53:09;93259.59;;;3.53;89.89
6198;BME280;3132;42.622;23.328;2023-12-29T06:55:35;93261.94;;;3.54;89.59
6198;BME280;3132;42.622;23.328;2023-12-29T06:58:00;93271.53;;;3.65;89.57
6198;BME280;3132;42.622;23.328;2023-12-29T07:00:26;93276.75;;;3.88;89.02
6198;BME280;3132;42.622;23.328;2023-12-29T07:02:51;93274.88;;;3.95;89.01
6198;BME280;3132;42.622;23.328;2023-12-29T07:05:16;93282.19;;;4.10;89.05
6198;BME280;3132;42.622;23.328;2023-12-29T07:07:42;93280.28;;;4.17;89.32
6198;BME280;3132;42.622;23.328;2023-12-29T07:10:07;93287.81;;;4.30;88.50
6198;BME280;3132;42.622;23.328;2023-12-29T07:12:33;93278.06;;;4.43;89.49
6198;BME280;3132;42.622;23.328;2023-12-29T07:14:58;93283.56;;;4.58;90.41
6198;BME280;3132;42.622;23.328;2023-12-29T07:17:23;93279.16;;;4.70;89.97
6198;BME280;3132;42.622;23.328;2023-12-29T07:19:49;93267.81;;;4.60;89.19
6198;BME280;3132;42.622;23.328;2023-12-29T07:22:15;93261.66;;;4.49;89.70
6198;BME280;3132;42.622;23.328;2023-12-29T07:24:40;93249.50;;;4.38;89.69
6198;BME280;3132;42.622;23.328;2023-12-29T07:27:06;93257.94;;;4.57;89.67
6198;BME280;3132;42.622;23.328;2023-12-29T07:29:33;93245.91;;;4.51;89.22
6198;BME280;3132;42.622;23.328;2023-12-29T07:31:58;93246.44;;;4.53;88.97
6198;BME280;3132;42.622;23.328;2023-12-29T07:34:24;93253.88;;;4.84;87.97
6198;BME280;3132;42.622;23.328;2023-12-29T07:36:50;93248.00;;;4.77;88.62
6198;BME280;3132;42.622;23.328;2023-12-29T07:39:15;93257.44;;;4.94;88.08
6198;BME280;3132;42.622;23.328;2023-12-29T07:41:41;93263.03;;;5.03;87.41
6198;BME280;3132;42.622;23.328;2023-12-29T07:44:07;93230.34;;;4.85;87.45
6198;BME280;3132;42.622;23.328;2023-12-29T07:46:33;93268.53;;;5.07;87.18
6198;BME280;3132;42.622;23.328;2023-12-29T07:48:58;93263.31;;;4.78;88.46
6198;BME280;3132;42.622;23.328;2023-12-29T07:51:23;93263.97;;;4.85;89.64
6198;BME280;3132;42.622;23.328;2023-12-29T07:53:49;93254.81;;;5.06;89.27
6198;BME280;3132;42.622;23.328;2023-12-29T07:56:14;93252.00;;;5.36;88.46
6198;BME280;3132;42.622;23.328;2023-12-29T07:58:40;93271.75;;;5.25;89.06
6198;BME280;3132;42.622;23.328;2023-12-29T08:01:05;93276.69;;;5.38;89.33
6198;BME280;3132;42.622;23.328;2023-12-29T08:03:30;93277.75;;;5.54;88.20
6198;BME280;3132;42.622;23.328;2023-12-29T08:05:55;93279.53;;;5.53;88.78
6198;BME280;3132;42.622;23.328;2023-12-29T08:08:21;93283.63;;;5.49;89.07
6198;BME280;3132;42.622;23.328;2023-12-29T08:10:46;93282.84;;;5.65;88.79
6198;BME280;3132;42.622;23.328;2023-12-29T08:13:12;93282.16;;;5.70;89.09
6198;BME280;3132;42.622;23.328;2023-12-29T08:15:37;93274.03;;;5.78;89.15
6198;BME280;3132;42.622;23.328;2023-12-29T08:18:04;93274.16;;;5.83;89.28
6198;BME280;3132;42.622;23.328;2023-12-29T08:20:29;93264.34;;;6.01;89.02
6198;BME280;3132;42.622;23.328;2023-12-29T08:22:55;93271.59;;;6.16;88.71
6198;BME280;3132;42.622;23.328;2023-12-29T08:25:22;93275.44;;;6.13;88.81
6198;BME280;3132;42.622;23.328;2023-12-29T08:27:47;93262.69;;;6.12;89.28
6198;BME280;3132;42.622;23.328;2023-12-29T08:30:13;93256.56;;;6.18;88.90
6198;BME280;3132;42.622;23.328;2023-12-29T08:32:38;93269.16;;;6.09;88.61
6198;BME280;3132;42.622;23.328;2023-12-29T08:35:04;93275.28;;;6.36;86.83
6198;BME280;3132;42.622;23.328;2023-12-29T08:37:29;93286.75;;;6.57;84.95
6198;BME280;3132;42.622;23.328;2023-12-29T08:39:54;93296.97;;;6.14;85.47
6198;BME280;3132;42.622;23.328;2023-12-29T08:42:21;93293.28;;;6.10;85.81
6198;BME280;3132;42.622;23.328;2023-12-29T08:44:46;93289.09;;;6.09;85.51
6198;BME280;3132;42.622;23.328;2023-12-29T08:47:11;93302.84;;;5.93;85.83
6198;BME280;3132;42.622;23.328;2023-12-29T08:49:37;93294.75;;;6.06;85.92
6198;BME280;3132;42.622;23.328;2023-12-29T08:52:04;93291.16;;;6.23;84.90
6198;BME280;3132;42.622;23.328;2023-12-29T08:54:29;93293.56;;;6.13;85.41
6198;BME280;3132;42.622;23.328;2023-12-29T08:56:54;93295.72;;;5.88;86.13
6198;BME280;3132;42.622;23.328;2023-12-29T08:59:20;93296.16;;;5.97;86.53
6198;BME280;3132;42.622;23.328;2023-12-29T09:01:45;93294.13;;;6.15;85.35
6198;BME280;3132;42.622;23.328;2023-12-29T09:04:10;93290.69;;;6.10;85.42
6198;BME280;3132;42.622;23.328;2023-12-29T09:06:36;93294.13;;;6.32;84.29
6198;BME280;3132;42.622;23.328;2023-12-29T09:09:01;93301.06;;;6.60;82.77
6198;BME280;3132;42.622;23.328;2023-12-29T09:11:26;93301.19;;;6.20;84.13
6198;BME280;3132;42.622;23.328;2023-12-29T09:13:52;93289.41;;;5.96;85.74
6198;BME280;3132;42.622;23.328;2023-12-29T09:16:17;93306.66;;;6.35;84.60
6198;BME280;3132;42.622;23.328;2023-12-29T09:18:43;93303.59;;;6.38;84.39
6198;BME280;3132;42.622;23.328;2023-12-29T09:21:08;93298.06;;;6.51;83.88
6198;BME280;3132;42.622;23.328;2023-12-29T09:23:33;93282.28;;;6.36;84.31
6198;BME280;3132;42.622;23.328;2023-12-29T09:25:59;93275.59;;;6.57;84.31
6198;BME280;3132;42.622;23.328;2023-12-29T09:28:25;93281.66;;;6.84;83.60
6198;BME280;3132;42.622;23.328;2023-12-29T09:30:50;93275.00;;;6.88;82.82
6198;BME280;3132;42.622;23.328;2023-12-29T09:33:15;93266.00;;;6.95;83.00
6198;BME280;3132;42.622;23.328;2023-12-29T09:35:41;93267.06;;;7.37;81.64
6198;BME280;3132;42.622;23.328;2023-12-29T09:38:06;93268.44;;;7.45;81.21
6198;BME280;3132;42.622;23.328;2023-12-29T09:40:32;93260.75;;;7.12;82.73
6198;BME280;3132;42.622;23.328;2023-12-29T09:42:59;93263.56;;;7.53;80.73
6198;BME280;3132;42.622;23.328;2023-12-29T09:45:24;93267.28;;;7.57;80.84
6198;BME280;3132;42.622;23.328;2023-12-29T09:47:51;93268.34;;;7.61;80.67
6198;BME280;3132;42.622;23.328;2023-12-29T09:50:21;93270.81;;;7.73;79.73
6198;BME280;3132;42.622;23.328;2023-12-29T09:52:48;93264.72;;;7.62;80.82
6198;BME280;3132;42.622;23.328;2023-12-29T09:55:15;93254.13;;;7.42;81.56
6198;BME280;3132;42.622;23.328;2023-12-29T09:57:40;93250.50;;;7.43;82.25
6198;BME280;3132;42.622;23.328;2023-12-29T10:00:10;93243.44;;;7.39;81.04
6198;BME280;3132;42.622;23.328;2023-12-29T10:02:36;93250.13;;;7.56;81.44
6198;BME280;3132;42.622;23.328;2023-12-29T10:05:03;93257.66;;;7.84;80.11
6198;BME280;3132;42.622;23.328;2023-12-29T10:07:32;93247.47;;;8.04;78.72
6198;BME280;3132;42.622;23.328;2023-12-29T10:09:58;93253.38;;;8.27;76.92
6198;BME280;3132;42.622;23.328;2023-12-29T10:12:24;93245.72;;;8.42;76.52
6198;BME280;3132;42.622;23.328;2023-12-29T10:17:35;93247.81;;;8.45;76.52
6198;BME280;3132;42.622;23.328;2023-12-29T10:20:16;93247.91;;;8.60;75.63
6198;BME280;3132;42.622;23.328;2023-12-29T10:22:51;93232.19;;;8.45;76.08
6198;BME280;3132;42.622;23.328;2023-12-29T10:25:21;93233.41;;;8.32;77.21
6198;BME280;3132;42.622;23.328;2023-12-29T10:27:49;93230.34;;;8.40;76.89
6198;BME280;3132;42.622;23.328;2023-12-29T10:30:15;93217.84;;;8.79;75.11
6198;BME280;3132;42.622;23.328;2023-12-29T10:32:41;93212.72;;;8.99;74.08
6198;BME280;3132;42.622;23.328;2023-12-29T10:35:10;93187.28;;;9.21;72.66
6198;BME280;3132;42.622;23.328;2023-12-29T10:37:36;93200.91;;;9.38;72.61
6198;BME280;3132;42.622;23.328;2023-12-29T10:40:02;93188.94;;;9.52;71.63
6198;BME280;3132;42.622;23.328;2023-12-29T10:42:27;93197.84;;;9.76;70.74
6198;BME280;3132;42.622;23.328;2023-12-29T10:45:09;93207.00;;;9.89;70.17
6198;BME280;3132;42.622;23.328;2023-12-29T10:47:35;93197.06;;;9.86;70.03
6198;BME280;3132;42.622;23.328;2023-12-29T10:50:02;93194.63;;;9.39;72.22
6198;BME280;3132;42.622;23.328;2023-12-29T10:52:29;93182.41;;;9.39;71.90
6198;BME280;3132;42.622;23.328;2023-12-29T10:55:05;93186.09;;;9.58;71.68
6198;BME280;3132;42.622;23.328;2023-12-29T10:57:30;93150.06;;;9.25;71.55
6198;BME280;3132;42.622;23.328;2023-12-29T10:59:55;93177.50;;;9.58;71.82
6198;BME280;3132;42.622;23.328;2023-12-29T11:02:21;93168.38;;;9.70;71.76
6198;BME280;3132;42.622;23.328;2023-12-29T11:04:47;93156.66;;;9.73;71.75
6198;BME280;3132;42.622;23.328;2023-12-29T11:07:12;93150.41;;;9.84;71.53
6198;BME280;3132;42.622;23.328;2023-12-29T11:09:38;93161.41;;;10.16;70.25
6198;BME280;3132;42.622;23.328;2023-12-29T11:12:04;93157.94;;;10.51;67.47
6198;BME280;3132;42.622;23.328;2023-12-29T11:14:31;93146.22;;;10.58;66.50
6198;BME280;3132;42.622;23.328;2023-12-29T11:16:58;93153.47;;;10.71;66.39
6198;BME280;3132;42.622;23.328;2023-12-29T11:19:25;93147.41;;;10.91;65.70
6198;BME280;3132;42.622;23.328;2023-12-29T11:21:53;93154.97;;;10.92;65.51
6198;BME280;3132;42.622;23.328;2023-12-29T11:24:20;93161.22;;;10.96;65.45
6198;BME280;3132;42.622;23.328;2023-12-29T11:26:45;93149.75;;;10.87;64.90
6198;BME280;3132;42.622;23.328;2023-12-29T11:29:14;93155.78;;;10.83;65.81
6198;BME280;3132;42.622;23.328;2023-12-29T11:31:41;93151.88;;;10.80;65.48
6198;BME280;3132;42.622;23.328;2023-12-29T11:34:13;93161.81;;;10.73;65.71
6198;BME280;3132;42.622;23.328;2023-12-29T11:36:45;93151.38;;;10.68;66.45
6198;BME280;3132;42.622;23.328;2023-12-29T11:42:07;93148.03;;;10.48;67.08
6198;BME280;3132;42.622;23.328;2023-12-29T11:44:37;93148.81;;;10.38;69.15
6198;BME280;3132;42.622;23.328;2023-12-29T11:47:03;93150.16;;;10.36;68.49
6198;BME280;3132;42.622;23.328;2023-12-29T11:49:58;93133.69;;;10.35;68.79
6198;BME280;3132;42.622;23.328;2023-12-29T11:52:37;93141.69;;;10.84;67.06
6198;BME280;3132;42.622;23.328;2023-12-29T11:55:11;93139.31;;;10.87;66.69
6198;BME280;3132;42.622;23.328;2023-12-29T11:57:37;93139.94;;;10.59;68.62
6198;BME280;3132;42.622;23.328;2023-12-29T12:00:05;93134.91;;;10.73;67.42
6198;BME280;3132;42.622;23.328;2023-12-29T12:02:31;93135.13;;;10.91;66.69
6198;BME280;3132;42.622;23.328;2023-12-29T12:04:57;93140.09;;;10.88;66.85
6198;BME280;3132;42.622;23.328;2023-12-29T12:09:51;93134.44;;;10.56;67.57
6198;BME280;3132;42.622;23.328;2023-12-29T12:12:41;93135.50;;;10.60;68.32
6198;BME280;3132;42.622;23.328;2023-12-29T12:18:01;93138.81;;;10.80;67.16
6198;BME280;3132;42.622;23.328;2023-12-29T12:20:29;93131.94;;;10.99;65.45
6198;BME280;3132;42.622;23.328;2023-12-29T12:23:02;93114.75;;;10.83;66.79
6198;BME280;3132;42.622;23.328;2023-12-29T12:25:30;93129.09;;;10.96;67.55
6198;BME280;3132;42.622;23.328;2023-12-29T12:27:56;93140.13;;;10.83;66.54
6198;BME280;3132;42.622;23.328;2023-12-29T12:30:22;93136.16;;;10.90;66.57
6198;BME280;3132;42.622;23.328;2023-12-29T12:32:57;93128.63;;;10.84;65.66
6198;BME280;3132;42.622;23.328;2023-12-29T12:35:23;93142.97;;;10.86;66.95
6198;BME280;3132;42.622;23.328;2023-12-29T12:38:15;93139.84;;;10.84;66.14
6198;BME280;3132;42.622;23.328;2023-12-29T12:40:50;93136.44;;;10.84;65.46
6198;BME280;3132;42.622;23.328;2023-12-29T12:43:16;93132.22;;;10.93;65.84
6198;BME280;3132;42.622;23.328;2023-12-29T12:45:47;93133.56;;;10.90;65.55
6198;BME280;3132;42.622;23.328;2023-12-29T12:48:24;93150.53;;;10.93;65.63
6198;BME280;3132;42.622;23.328;2023-12-29T12:50:54;93136.97;;;10.91;66.08
6198;BME280;3132;42.622;23.328;2023-12-29T12:53:22;93143.47;;;10.98;64.76
6198;BME280;3132;42.622;23.328;2023-12-29T12:55:49;93138.25;;;10.93;64.33
6198;BME280;3132;42.622;23.328;2023-12-29T12:58:17;93142.69;;;10.93;64.57
6198;BME280;3132;42.622;23.328;2023-12-29T13:00:44;93153.66;;;10.90;63.42
6198;BME280;3132;42.622;23.328;2023-12-29T13:03:10;93144.00;;;10.95;64.92
6198;BME280;3132;42.622;23.328;2023-12-29T13:05:36;93137.25;;;10.84;63.65
6198;BME280;3132;42.622;23.328;2023-12-29T13:08:03;93144.28;;;10.89;63.92
6198;BME280;3132;42.622;23.328;2023-12-29T13:10:30;93130.75;;;10.77;64.01
6198;BME280;3132;42.622;23.328;2023-12-29T13:12:55;93137.50;;;10.88;63.67
6198;BME280;3132;42.622;23.328;2023-12-29T13:15:21;93144.03;;;10.85;63.47
6198;BME280;3132;42.622;23.328;2023-12-29T13:17:51;93135.72;;;10.73;64.61
6198;BME280;3132;42.622;23.328;2023-12-29T13:20:16;93140.72;;;10.60;65.38
6198;BME280;3132;42.622;23.328;2023-12-29T13:22:42;93127.19;;;10.28;66.54
6198;BME280;3132;42.622;23.328;2023-12-29T13:25:09;93136.34;;;10.20;67.21
6198;BME280;3132;42.622;23.328;2023-12-29T13:27:38;93134.00;;;10.04;67.53
6198;BME280;3132;42.622;23.328;2023-12-29T13:30:05;93126.41;;;9.87;67.72
6198;BME280;3132;42.622;23.328;2023-12-29T13:32:31;93127.19;;;9.77;68.79